sensor_id;sensor_type;location;lat;lon;timestamp;pressure;altitude;pressure_sealevel;temperature;humidity
13869;BME280;7004;48.206;16.402;2023-04-19T00:00:56;99998.22;;;11.95;80.54
13869;BME280;7004;48.206;16.402;2023-04-19T00:03:24;99984.94;;;12.10;79.33
13869;BME280;7004;48.206;16.402;2023-04-19T00:05:59;99991.94;;;12.11;78.87
13869;BME280;7004;48.206;16.402;2023-04-19T00:08:31;99989.00;;;11.88;79.91
13869;BME280;7004;48.206;16.402;2023-04-19T00:11:01;99979.19;;;12.03;80.23
13869;BME280;7004;48.206;16.402;2023-04-19T00:13:31;99978.34;;;12.02;80.09
13869;BME280;7004;48.206;16.402;2023-04-19T00:16:01;99979.78;;;12.21;79.62
13869;BME280;7004;48.206;16.402;2023-04-19T00:18:28;99981.50;;;11.95;79.55
13869;BME280;7004;48.206;16.402;2023-04-19T00:20:55;99983.44;;;11.64;80.60
13869;BME280;7004;48.206;16.402;2023-04-19T00:23:27;99970.69;;;12.25;78.85
13869;BME280;7004;48.206;16.402;2023-04-19T00:26:02;99976.16;;;11.68;81.04
13869;BME280;7004;48.206;16.402;2023-04-19T00:28:32;99976.09;;;11.82;80.27
13869;BME280;7004;48.206;16.402;2023-04-19T00:31:01;99967.31;;;11.54;81.51
13869;BME280;7004;48.206;16.402;2023-04-19T00:33:33;99969.00;;;11.41;82.05
13869;BME280;7004;48.206;16.402;2023-04-19T00:35:59;99962.66;;;11.99;79.83
13869;BME280;7004;48.206;16.402;2023-04-19T00:38:34;99952.25;;;11.96;80.07
13869;BME280;7004;48.206;16.402;2023-04-19T00:41:04;99960.97;;;11.84;79.49
13869;BME280;7004;48.206;16.402;2023-04-19T00:43:35;99949.81;;;11.93;80.10
13869;BME280;7004;48.206;16.402;2023-04-19T00:46:02;99947.50;;;12.01;80.60
13869;BME280;7004;48.206;16.402;2023-04-19T00:48:35;99952.75;;;11.74;81.88
13869;BME280;7004;48.206;16.402;2023-04-19T00:51:06;99953.06;;;12.24;79.81
13869;BME280;7004;48.206;16.402;2023-04-19T00:53:36;99945.13;;;12.24;78.62
13869;BME280;7004;48.206;16.402;2023-04-19T00:56:07;99946.13;;;12.36;77.99
13869;BME280;7004;48.206;16.402;2023-04-19T00:58:41;99939.69;;;12.13;79.61
13869;BME280;7004;48.206;16.402;2023-04-19T01:01:08;99934.19;;;12.16;79.30
13869;BME280;7004;48.206;16.402;2023-04-19T01:03:36;99944.53;;;12.06;80.13
13869;BME280;7004;48.206;16.402;2023-04-19T01:06:03;99933.66;;;11.84;80.31
13869;BME280;7004;48.206;16.402;2023-04-19T01:08:30;99930.63;;;11.90;80.96
13869;BME280;7004;48.206;16.402;2023-04-19T01:10:56;99929.25;;;11.97;80.82
13869;BME280;7004;48.206;16.402;2023-04-19T01:13:22;99924.94;;;11.81;80.36
13869;BME280;7004;48.206;16.402;2023-04-19T01:15:48;99931.91;;;11.97;80.88
13869;BME280;7004;48.206;16.402;2023-04-19T01:18:14;99933.69;;;12.23;78.84
13869;BME280;7004;48.206;16.402;2023-04-19T01:20:43;99923.88;;;12.11;79.08
13869;BME280;7004;48.206;16.402;2023-04-19T01:23:11;99922.13;;;12.12;80.38
13869;BME280;7004;48.206;16.402;2023-04-19T01:25:38;99918.81;;;11.81;80.79
13869;BME280;7004;48.206;16.402;2023-04-19T01:28:04;99914.84;;;11.74;81.46
13869;BME280;7004;48.206;16.402;2023-04-19T01:30:31;99919.03;;;11.64;81.86
13869;BME280;7004;48.206;16.402;2023-04-19T01:32:57;99916.13;;;11.54;82.50
13869;BME280;7004;48.206;16.402;2023-04-19T01:35:24;99920.09;;;11.61;82.03
13869;BME280;7004;48.206;16.402;2023-04-19T01:37:50;99914.25;;;12.10;79.57
13869;BME280;7004;48.206;16.402;2023-04-19T01:40:18;99915.84;;;11.86;80.72
13869;BME280;7004;48.206;16.402;2023-04-19T01:42:44;99903.97;;;11.78;81.33
13869;BME280;7004;48.206;16.402;2023-04-19T01:45:10;99914.94;;;11.87;80.50
13869;BME280;7004;48.206;16.402;2023-04-19T01:47:37;99915.41;;;11.79;80.50
13869;BME280;7004;48.206;16.402;2023-04-19T01:50:03;99918.38;;;12.01;79.84
13869;BME280;7004;48.206;16.402;2023-04-19T01:52:30;99916.72;;;11.86;81.07
13869;BME280;7004;48.206;16.402;2023-04-19T01:55:12;99909.84;;;11.69;82.09
13869;BME280;7004;48.206;16.402;2023-04-19T01:57:39;99904.88;;;11.77;81.60
13869;BME280;7004;48.206;16.402;2023-04-19T02:00:07;99896.44;;;11.85;81.37
13869;BME280;7004;48.206;16.402;2023-04-19T02:02:39;99904.50;;;11.84;81.41
13869;BME280;7004;48.206;16.402;2023-04-19T02:05:07;99901.47;;;11.90;81.70
13869;BME280;7004;48.206;16.402;2023-04-19T02:07:34;99902.09;;;11.66;82.55
13869;BME280;7004;48.206;16.402;2023-04-19T02:10:01;99898.06;;;11.61;83.32
13869;BME280;7004;48.206;16.402;2023-04-19T02:12:29;99887.94;;;11.94;81.59
13869;BME280;7004;48.206;16.402;2023-04-19T02:14:57;99898.25;;;11.85;81.51
13869;BME280;7004;48.206;16.402;2023-04-19T02:17:25;99891.53;;;11.93;81.24
13869;BME280;7004;48.206;16.402;2023-04-19T02:19:51;99895.03;;;11.94;80.17
13869;BME280;7004;48.206;16.402;2023-04-19T02:22:19;99889.63;;;11.95;79.84
13869;BME280;7004;48.206;16.402;2023-04-19T02:24:48;99891.88;;;12.01;80.61
13869;BME280;7004;48.206;16.402;2023-04-19T02:27:14;99884.19;;;12.50;78.21
13869;BME280;7004;48.206;16.402;2023-04-19T02:29:40;99882.94;;;12.30;79.11
13869;BME280;7004;48.206;16.402;2023-04-19T02:32:07;99881.00;;;12.44;78.64
13869;BME280;7004;48.206;16.402;2023-04-19T02:34:34;99880.78;;;12.22;80.31
13869;BME280;7004;48.206;16.402;2023-04-19T02:37:01;99876.72;;;11.91;80.80
13869;BME280;7004;48.206;16.402;2023-04-19T02:39:27;99879.41;;;11.62;81.90
13869;BME280;7004;48.206;16.402;2023-04-19T02:41:54;99887.28;;;11.22;83.42
13869;BME280;7004;48.206;16.402;2023-04-19T02:44:21;99879.38;;;11.76;81.86
13869;BME280;7004;48.206;16.402;2023-04-19T02:46:51;99877.47;;;11.51;82.63
13869;BME280;7004;48.206;16.402;2023-04-19T02:49:18;99876.47;;;11.67;82.87
13869;BME280;7004;48.206;16.402;2023-04-19T02:51:45;99869.53;;;11.78;81.90
13869;BME280;7004;48.206;16.402;2023-04-19T02:54:12;99868.16;;;11.73;82.21
13869;BME280;7004;48.206;16.402;2023-04-19T02:56:38;99870.91;;;11.84;81.69
13869;BME280;7004;48.206;16.402;2023-04-19T02:59:05;99870.28;;;11.53;83.00
13869;BME280;7004;48.206;16.402;2023-04-19T03:01:31;99865.00;;;11.80;82.28
13869;BME280;7004;48.206;16.402;2023-04-19T03:03:57;99859.75;;;12.06;80.00
13869;BME280;7004;48.206;16.402;2023-04-19T03:06:24;99855.31;;;12.07;80.12
13869;BME280;7004;48.206;16.402;2023-04-19T03:08:51;99854.91;;;11.73;81.94
13869;BME280;7004;48.206;16.402;2023-04-19T03:11:17;99854.19;;;11.84;81.53
13869;BME280;7004;48.206;16.402;2023-04-19T03:13:44;99849.16;;;11.93;81.47
13869;BME280;7004;48.206;16.402;2023-04-19T03:16:10;99849.22;;;11.65;82.23
13869;BME280;7004;48.206;16.402;2023-04-19T03:18:36;99850.69;;;12.23;78.90
13869;BME280;7004;48.206;16.402;2023-04-19T03:21:03;99840.25;;;11.94;80.44
13869;BME280;7004;48.206;16.402;2023-04-19T03:23:29;99840.06;;;11.70;82.78
13869;BME280;7004;48.206;16.402;2023-04-19T03:25:55;99834.22;;;11.65;82.46
13869;BME280;7004;48.206;16.402;2023-04-19T03:28:22;99830.09;;;12.14;80.59
13869;BME280;7004;48.206;16.402;2023-04-19T03:30:48;99830.94;;;12.01;80.57
13869;BME280;7004;48.206;16.402;2023-04-19T03:33:14;99833.94;;;11.82;81.27
13869;BME280;7004;48.206;16.402;2023-04-19T03:35:40;99836.00;;;11.65;82.17
13869;BME280;7004;48.206;16.402;2023-04-19T03:38:06;99824.72;;;11.48;82.69
13869;BME280;7004;48.206;16.402;2023-04-19T03:40:32;99832.53;;;11.77;82.01
13869;BME280;7004;48.206;16.402;2023-04-19T03:42:58;99829.34;;;11.99;81.27
13869;BME280;7004;48.206;16.402;2023-04-19T03:45:25;99830.41;;;11.96;82.93
13869;BME280;7004;48.206;16.402;2023-04-19T03:47:52;99832.28;;;11.67;85.29
13869;BME280;7004;48.206;16.402;2023-04-19T03:50:18;99827.38;;;11.48;86.45
13869;BME280;7004;48.206;16.402;2023-04-19T03:52:44;99822.16;;;11.34;87.12
13869;BME280;7004;48.206;16.402;2023-04-19T03:55:12;99821.41;;;11.32;88.75
13869;BME280;7004;48.206;16.402;2023-04-19T03:57:38;99824.19;;;11.43;87.09
13869;BME280;7004;48.206;16.402;2023-04-19T04:00:06;99824.94;;;11.45;88.56
13869;BME280;7004;48.206;16.402;2023-04-19T04:02:38;99828.75;;;11.54;87.62
13869;BME280;7004;48.206;16.402;2023-04-19T04:05:06;99818.75;;;11.72;86.51
13869;BME280;7004;48.206;16.402;2023-04-19T04:07:32;99825.78;;;11.19;89.19
13869;BME280;7004;48.206;16.402;2023-04-19T04:09:58;99821.31;;;11.46;88.20
13869;BME280;7004;48.206;16.402;2023-04-19T04:12:24;99822.03;;;10.94;88.99
13869;BME280;7004;48.206;16.402;2023-04-19T04:14:50;99814.84;;;11.10;89.02
13869;BME280;7004;48.206;16.402;2023-04-19T04:17:16;99825.25;;;10.99;90.40
13869;BME280;7004;48.206;16.402;2023-04-19T04:19:42;99820.34;;;11.34;88.25
13869;BME280;7004;48.206;16.402;2023-04-19T04:22:08;99827.97;;;11.12;89.99
13869;BME280;7004;48.206;16.402;2023-04-19T04:24:38;99824.06;;;11.18;89.09
13869;BME280;7004;48.206;16.402;2023-04-19T04:27:07;99826.19;;;11.40;88.83
13869;BME280;7004;48.206;16.402;2023-04-19T04:29:38;99826.28;;;10.97;90.16
13869;BME280;7004;48.206;16.402;2023-04-19T04:32:07;99828.03;;;10.69;91.62
13869;BME280;7004;48.206;16.402;2023-04-19T04:34:34;99827.53;;;11.05;91.08
13869;BME280;7004;48.206;16.402;2023-04-19T04:37:02;99822.38;;;11.17;90.93
13869;BME280;7004;48.206;16.402;2023-04-19T04:39:29;99820.16;;;11.23;89.77
13869;BME280;7004;48.206;16.402;2023-04-19T04:41:55;99824.44;;;11.53;88.85
13869;BME280;7004;48.206;16.402;2023-04-19T04:44:24;99825.41;;;11.65;88.78
13869;BME280;7004;48.206;16.402;2023-04-19T04:46:50;99816.88;;;11.20;91.33
13869;BME280;7004;48.206;16.402;2023-04-19T04:49:16;99821.56;;;11.02;91.46
13869;BME280;7004;48.206;16.402;2023-04-19T04:51:42;99826.41;;;11.36;90.66
13869;BME280;7004;48.206;16.402;2023-04-19T04:54:09;99822.88;;;11.36;90.83
13869;BME280;7004;48.206;16.402;2023-04-19T04:56:35;99813.06;;;10.97;92.77
13869;BME280;7004;48.206;16.402;2023-04-19T04:59:01;99812.00;;;11.41;94.09
13869;BME280;7004;48.206;16.402;2023-04-19T05:01:29;99807.16;;;11.47;92.69
13869;BME280;7004;48.206;16.402;2023-04-19T05:03:55;99812.56;;;11.19;92.89
13869;BME280;7004;48.206;16.402;2023-04-19T05:06:21;99811.66;;;11.05;94.57
13869;BME280;7004;48.206;16.402;2023-04-19T05:08:47;99807.91;;;10.81;94.41
13869;BME280;7004;48.206;16.402;2023-04-19T05:11:13;99809.25;;;11.42;93.71
13869;BME280;7004;48.206;16.402;2023-04-19T05:13:40;99812.22;;;11.10;93.19
13869;BME280;7004;48.206;16.402;2023-04-19T05:16:06;99804.97;;;11.27;93.15
13869;BME280;7004;48.206;16.402;2023-04-19T05:18:32;99803.50;;;11.08;93.64
13869;BME280;7004;48.206;16.402;2023-04-19T05:20:58;99803.31;;;11.11;93.13
13869;BME280;7004;48.206;16.402;2023-04-19T05:23:25;99806.19;;;11.48;92.13
13869;BME280;7004;48.206;16.402;2023-04-19T05:25:51;99799.22;;;11.47;91.49
13869;BME280;7004;48.206;16.402;2023-04-19T05:28:17;99794.72;;;11.35;93.44
13869;BME280;7004;48.206;16.402;2023-04-19T05:30:43;99799.66;;;11.27;92.93
13869;BME280;7004;48.206;16.402;2023-04-19T05:33:09;99799.50;;;11.43;92.70
13869;BME280;7004;48.206;16.402;2023-04-19T05:35:35;99799.00;;;11.23;94.38
13869;BME280;7004;48.206;16.402;2023-04-19T05:38:01;99794.03;;;11.19;95.21
13869;BME280;7004;48.206;16.402;2023-04-19T05:40:28;99794.78;;;11.21;95.09
13869;BME280;7004;48.206;16.402;2023-04-19T05:42:54;99790.41;;;11.34;94.39
13869;BME280;7004;48.206;16.402;2023-04-19T05:45:21;99790.63;;;11.44;94.75
13869;BME280;7004;48.206;16.402;2023-04-19T05:47:47;99792.53;;;11.42;94.20
13869;BME280;7004;48.206;16.402;2023-04-19T05:50:15;99791.22;;;11.07;96.16
13869;BME280;7004;48.206;16.402;2023-04-19T05:52:43;99782.78;;;10.88;97.13
13869;BME280;7004;48.206;16.402;2023-04-19T05:55:09;99786.31;;;11.28;97.57
13869;BME280;7004;48.206;16.402;2023-04-19T05:57:35;99788.41;;;11.23;100.00
13869;BME280;7004;48.206;16.402;2023-04-19T06:00:02;99784.09;;;11.22;99.44
13869;BME280;7004;48.206;16.402;2023-04-19T06:02:29;99782.84;;;11.28;100.00
13869;BME280;7004;48.206;16.402;2023-04-19T06:04:55;99773.94;;;11.02;100.00
13869;BME280;7004;48.206;16.402;2023-04-19T06:07:23;99776.50;;;11.70;98.90
13869;BME280;7004;48.206;16.402;2023-04-19T06:09:49;99773.00;;;11.70;98.62
13869;BME280;7004;48.206;16.402;2023-04-19T06:12:15;99773.38;;;11.51;98.38
13869;BME280;7004;48.206;16.402;2023-04-19T06:14:41;99776.91;;;11.24;98.77
13869;BME280;7004;48.206;16.402;2023-04-19T06:17:07;99777.53;;;11.55;97.82
13869;BME280;7004;48.206;16.402;2023-04-19T06:19:33;99779.91;;;11.32;99.60
13869;BME280;7004;48.206;16.402;2023-04-19T06:21:59;99776.69;;;11.94;95.90
13869;BME280;7004;48.206;16.402;2023-04-19T06:24:26;99777.53;;;11.28;98.53
13869;BME280;7004;48.206;16.402;2023-04-19T06:26:52;99779.56;;;11.64;97.78
13869;BME280;7004;48.206;16.402;2023-04-19T06:29:18;99778.13;;;11.46;95.71
13869;BME280;7004;48.206;16.402;2023-04-19T06:31:46;99781.78;;;11.30;97.53
13869;BME280;7004;48.206;16.402;2023-04-19T06:34:13;99782.22;;;11.77;95.06
13869;BME280;7004;48.206;16.402;2023-04-19T06:36:39;99787.06;;;11.30;96.31
13869;BME280;7004;48.206;16.402;2023-04-19T06:39:06;99782.69;;;11.17;96.39
13869;BME280;7004;48.206;16.402;2023-04-19T06:41:32;99778.44;;;11.14;96.42
13869;BME280;7004;48.206;16.402;2023-04-19T06:43:58;99784.00;;;11.24;96.35
13869;BME280;7004;48.206;16.402;2023-04-19T06:46:25;99779.59;;;11.37;97.07
13869;BME280;7004;48.206;16.402;2023-04-19T06:48:52;99780.94;;;11.03;97.78
13869;BME280;7004;48.206;16.402;2023-04-19T06:51:18;99779.84;;;11.20;95.86
13869;BME280;7004;48.206;16.402;2023-04-19T06:53:44;99775.66;;;11.30;97.45
13869;BME280;7004;48.206;16.402;2023-04-19T06:56:10;99780.69;;;11.20;97.61
13869;BME280;7004;48.206;16.402;2023-04-19T06:58:38;99777.09;;;10.94;98.52
13869;BME280;7004;48.206;16.402;2023-04-19T07:01:04;99779.34;;;11.00;99.08
13869;BME280;7004;48.206;16.402;2023-04-19T07:03:30;99770.31;;;11.17;98.35
13869;BME280;7004;48.206;16.402;2023-04-19T07:05:57;99773.41;;;11.64;95.21
13869;BME280;7004;48.206;16.402;2023-04-19T07:08:24;99768.41;;;11.19;98.08
13869;BME280;7004;48.206;16.402;2023-04-19T07:10:50;99771.25;;;10.89;98.25
13869;BME280;7004;48.206;16.402;2023-04-19T07:13:16;99769.69;;;10.99;98.28
13869;BME280;7004;48.206;16.402;2023-04-19T07:15:42;99774.22;;;11.11;99.91
13869;BME280;7004;48.206;16.402;2023-04-19T07:18:08;99779.31;;;10.73;100.00
13869;BME280;7004;48.206;16.402;2023-04-19T07:20:39;99780.88;;;11.17;100.00
13869;BME280;7004;48.206;16.402;2023-04-19T07:23:10;99769.34;;;10.91;100.00
13869;BME280;7004;48.206;16.402;2023-04-19T07:25:36;99770.81;;;11.09;100.00
13869;BME280;7004;48.206;16.402;2023-04-19T07:28:02;99771.91;;;11.20;100.00
13869;BME280;7004;48.206;16.402;2023-04-19T07:30:28;99771.31;;;11.29;100.00
13869;BME280;7004;48.206;16.402;2023-04-19T07:32:54;99768.94;;;10.97;100.00
13869;BME280;7004;48.206;16.402;2023-04-19T07:35:21;99764.47;;;11.12;100.00
13869;BME280;7004;48.206;16.402;2023-04-19T07:37:47;99768.34;;;11.33;100.00
13869;BME280;7004;48.206;16.402;2023-04-19T07:40:13;99766.06;;;10.87;100.00
13869;BME280;7004;48.206;16.402;2023-04-19T07:42:39;99759.72;;;11.44;100.00
13869;BME280;7004;48.206;16.402;2023-04-19T07:45:06;99765.47;;;11.24;100.00
13869;BME280;7004;48.206;16.402;2023-04-19T07:47:34;99765.19;;;11.41;100.00
13869;BME280;7004;48.206;16.402;2023-04-19T07:50:00;99767.75;;;10.88;100.00
13869;BME280;7004;48.206;16.402;2023-04-19T07:52:27;99772.94;;;10.90;100.00
13869;BME280;7004;48.206;16.402;2023-04-19T07:54:53;99772.91;;;10.48;100.00
13869;BME280;7004;48.206;16.402;2023-04-19T07:57:19;99773.09;;;10.74;100.00
13869;BME280;7004;48.206;16.402;2023-04-19T07:59:46;99766.13;;;11.00;100.00
13869;BME280;7004;48.206;16.402;2023-04-19T08:02:12;99770.44;;;11.15;100.00
13869;BME280;7004;48.206;16.402;2023-04-19T08:04:38;99764.22;;;11.69;100.00
13869;BME280;7004;48.206;16.402;2023-04-19T08:07:04;99761.56;;;11.69;100.00
13869;BME280;7004;48.206;16.402;2023-04-19T08:09:36;99763.31;;;11.43;100.00
13869;BME280;7004;48.206;16.402;2023-04-19T08:12:02;99759.50;;;11.47;100.00
13869;BME280;7004;48.206;16.402;2023-04-19T08:14:28;99761.63;;;11.42;100.00
13869;BME280;7004;48.206;16.402;2023-04-19T08:16:55;99759.03;;;11.68;100.00
13869;BME280;7004;48.206;16.402;2023-04-19T08:19:21;99750.63;;;11.48;100.00
13869;BME280;7004;48.206;16.402;2023-04-19T08:21:47;99762.06;;;11.62;100.00
13869;BME280;7004;48.206;16.402;2023-04-19T08:24:13;99760.41;;;11.73;100.00
13869;BME280;7004;48.206;16.402;2023-04-19T08:26:39;99760.69;;;11.56;100.00
13869;BME280;7004;48.206;16.402;2023-04-19T08:29:05;99762.50;;;11.28;100.00
13869;BME280;7004;48.206;16.402;2023-04-19T08:31:32;99765.25;;;11.67;100.00
13869;BME280;7004;48.206;16.402;2023-04-19T08:33:58;99764.00;;;11.85;100.00
13869;BME280;7004;48.206;16.402;2023-04-19T08:36:25;99759.44;;;11.74;100.00
13869;BME280;7004;48.206;16.402;2023-04-19T08:38:55;99756.09;;;11.98;100.00
13869;BME280;7004;48.206;16.402;2023-04-19T08:41:21;99754.66;;;11.94;100.00
13869;BME280;7004;48.206;16.402;2023-04-19T08:43:51;99750.50;;;12.02;100.00
13869;BME280;7004;48.206;16.402;2023-04-19T08:46:17;99756.56;;;12.05;100.00
13869;BME280;7004;48.206;16.402;2023-04-19T08:48:44;99757.91;;;12.23;100.00
13869;BME280;7004;48.206;16.402;2023-04-19T08:51:11;99755.41;;;11.69;100.00
13869;BME280;7004;48.206;16.402;2023-04-19T08:53:40;99748.50;;;11.93;100.00
13869;BME280;7004;48.206;16.402;2023-04-19T08:56:07;99750.28;;;11.93;100.00
13869;BME280;7004;48.206;16.402;2023-04-19T08:58:33;99748.34;;;12.59;97.49
13869;BME280;7004;48.206;16.402;2023-04-19T09:01:00;99745.34;;;10.94;100.00
13869;BME280;7004;48.206;16.402;2023-04-19T09:03:27;99754.38;;;10.63;100.00
13869;BME280;7004;48.206;16.402;2023-04-19T09:05:54;99754.53;;;11.43;100.00
13869;BME280;7004;48.206;16.402;2023-04-19T09:08:29;99755.09;;;11.61;100.00
13869;BME280;7004;48.206;16.402;2023-04-19T09:11:00;99753.69;;;11.42;100.00
13869;BME280;7004;48.206;16.402;2023-04-19T09:13:28;99762.44;;;11.03;100.00
13869;BME280;7004;48.206;16.402;2023-04-19T09:15:55;99754.31;;;11.46;100.00
13869;BME280;7004;48.206;16.402;2023-04-19T09:18:23;99763.16;;;11.05;100.00
13869;BME280;7004;48.206;16.402;2023-04-19T09:20:52;99756.44;;;11.13;100.00
13869;BME280;7004;48.206;16.402;2023-04-19T09:23:24;99753.16;;;11.50;100.00
13869;BME280;7004;48.206;16.402;2023-04-19T09:25:55;99756.22;;;11.56;100.00
13869;BME280;7004;48.206;16.402;2023-04-19T09:28:23;99764.41;;;10.99;100.00
13869;BME280;7004;48.206;16.402;2023-04-19T09:30:49;99759.88;;;10.74;100.00
13869;BME280;7004;48.206;16.402;2023-04-19T09:33:32;99755.44;;;11.29;100.00
13869;BME280;7004;48.206;16.402;2023-04-19T09:36:00;99756.16;;;11.31;100.00
13869;BME280;7004;48.206;16.402;2023-04-19T09:38:27;99752.41;;;11.08;100.00
13869;BME280;7004;48.206;16.402;2023-04-19T09:41:20;99759.69;;;11.31;100.00
13869;BME280;7004;48.206;16.402;2023-04-19T09:43:46;99757.75;;;11.21;100.00
13869;BME280;7004;48.206;16.402;2023-04-19T09:46:35;99748.66;;;11.25;100.00
13869;BME280;7004;48.206;16.402;2023-04-19T09:51:47;99746.94;;;10.97;100.00
13869;BME280;7004;48.206;16.402;2023-04-19T09:54:15;99756.88;;;11.20;100.00
13869;BME280;7004;48.206;16.402;2023-04-19T09:56:42;99751.72;;;11.71;100.00
13869;BME280;7004;48.206;16.402;2023-04-19T09:59:09;99750.63;;;11.61;100.00
13869;BME280;7004;48.206;16.402;2023-04-19T10:01:54;99754.84;;;11.11;100.00
13869;BME280;7004;48.206;16.402;2023-04-19T10:04:24;99753.34;;;11.34;100.00
13869;BME280;7004;48.206;16.402;2023-04-19T10:06:53;99745.81;;;11.80;100.00
13869;BME280;7004;48.206;16.402;2023-04-19T10:09:21;99749.34;;;11.54;100.00
13869;BME280;7004;48.206;16.402;2023-04-19T10:11:52;99750.56;;;11.35;100.00
13869;BME280;7004;48.206;16.402;2023-04-19T10:14:22;99747.16;;;11.73;100.00
13869;BME280;7004;48.206;16.402;2023-04-19T10:16:50;99751.03;;;12.33;100.00
13869;BME280;7004;48.206;16.402;2023-04-19T10:19:19;99754.47;;;11.82;100.00
13869;BME280;7004;48.206;16.402;2023-04-19T10:21:48;99754.13;;;12.27;100.00
13869;BME280;7004;48.206;16.402;2023-04-19T10:24:16;99736.41;;;12.28;100.00
13869;BME280;7004;48.206;16.402;2023-04-19T10:27:07;99743.41;;;12.03;100.00
13869;BME280;7004;48.206;16.402;2023-04-19T10:32:20;99735.22;;;12.06;100.00
13869;BME280;7004;48.206;16.402;2023-04-19T10:34:46;99738.16;;;11.76;100.00
13869;BME280;7004;48.206;16.402;2023-04-19T10:37:15;99739.50;;;11.96;100.00
13869;BME280;7004;48.206;16.402;2023-04-19T10:39:44;99741.41;;;12.07;100.00
13869;BME280;7004;48.206;16.402;2023-04-19T10:42:10;99745.69;;;11.82;100.00
13869;BME280;7004;48.206;16.402;2023-04-19T10:44:37;99734.56;;;11.77;100.00
13869;BME280;7004;48.206;16.402;2023-04-19T10:47:05;99735.53;;;11.76;100.00
13869;BME280;7004;48.206;16.402;2023-04-19T10:49:31;99728.78;;;12.73;98.43
13869;BME280;7004;48.206;16.402;2023-04-19T10:52:28;99723.13;;;12.77;99.79
13869;BME280;7004;48.206;16.402;2023-04-19T10:54:55;99724.25;;;12.62;99.55
13869;BME280;7004;48.206;16.402;2023-04-19T10:57:22;99723.78;;;12.68;97.50
13869;BME280;7004;48.206;16.402;2023-04-19T11:00:20;99722.91;;;11.67;99.38
13869;BME280;7004;48.206;16.402;2023-04-19T11:02:46;99720.78;;;11.85;100.00
13869;BME280;7004;48.206;16.402;2023-04-19T11:05:12;99728.38;;;11.91;100.00
13869;BME280;7004;48.206;16.402;2023-04-19T11:07:40;99721.47;;;11.88;99.84
13869;BME280;7004;48.206;16.402;2023-04-19T11:10:08;99712.66;;;12.26;98.60
13869;BME280;7004;48.206;16.402;2023-04-19T11:12:34;99715.63;;;11.83;99.44
13869;BME280;7004;48.206;16.402;2023-04-19T11:15:00;99713.41;;;12.15;98.76
13869;BME280;7004;48.206;16.402;2023-04-19T11:17:29;99705.03;;;11.70;99.96
13869;BME280;7004;48.206;16.402;2023-04-19T11:19:58;99704.50;;;12.16;98.42
13869;BME280;7004;48.206;16.402;2023-04-19T11:22:29;99704.84;;;11.86;97.83
13869;BME280;7004;48.206;16.402;2023-04-19T11:24:56;99705.47;;;11.90;97.21
13869;BME280;7004;48.206;16.402;2023-04-19T11:27:22;99710.13;;;12.24;100.00
13869;BME280;7004;48.206;16.402;2023-04-19T11:29:48;99707.03;;;12.67;100.00
13869;BME280;7004;48.206;16.402;2023-04-19T11:32:14;99704.28;;;12.69;98.42
13869;BME280;7004;48.206;16.402;2023-04-19T11:34:41;99712.59;;;12.88;96.17
13869;BME280;7004;48.206;16.402;2023-04-19T11:37:08;99700.28;;;12.87;93.91
13869;BME280;7004;48.206;16.402;2023-04-19T11:39:45;99701.53;;;12.58;94.40
13869;BME280;7004;48.206;16.402;2023-04-19T11:42:19;99687.56;;;13.28;93.30
13869;BME280;7004;48.206;16.402;2023-04-19T11:44:50;99696.72;;;13.24;95.10
13869;BME280;7004;48.206;16.402;2023-04-19T11:47:17;99684.69;;;13.07;94.45
13869;BME280;7004;48.206;16.402;2023-04-19T11:49:44;99695.22;;;12.84;92.27
13869;BME280;7004;48.206;16.402;2023-04-19T11:52:11;99689.06;;;13.08;92.87
13869;BME280;7004;48.206;16.402;2023-04-19T11:54:37;99702.16;;;12.24;92.35
13869;BME280;7004;48.206;16.402;2023-04-19T11:57:08;99691.94;;;12.44;91.17
13869;BME280;7004;48.206;16.402;2023-04-19T11:59:35;99691.63;;;12.73;95.71
13869;BME280;7004;48.206;16.402;2023-04-19T12:02:19;99692.19;;;12.65;93.87
13869;BME280;7004;48.206;16.402;2023-04-19T12:04:45;99690.56;;;12.75;92.39
13869;BME280;7004;48.206;16.402;2023-04-19T12:07:11;99695.81;;;12.64;94.30
13869;BME280;7004;48.206;16.402;2023-04-19T12:09:38;99687.41;;;12.70;95.18
13869;BME280;7004;48.206;16.402;2023-04-19T12:12:04;99697.31;;;11.93;95.23
13869;BME280;7004;48.206;16.402;2023-04-19T12:14:31;99683.66;;;11.99;90.37
13869;BME280;7004;48.206;16.402;2023-04-19T12:17:12;99682.19;;;12.32;94.30
13869;BME280;7004;48.206;16.402;2023-04-19T12:19:46;99680.44;;;11.81;92.60
13869;BME280;7004;48.206;16.402;2023-04-19T12:22:15;99685.88;;;11.92;92.93
13869;BME280;7004;48.206;16.402;2023-04-19T12:24:42;99684.56;;;11.72;90.86
13869;BME280;7004;48.206;16.402;2023-04-19T12:27:09;99681.22;;;11.96;92.34
13869;BME280;7004;48.206;16.402;2023-04-19T12:29:36;99678.88;;;11.26;94.66
13869;BME280;7004;48.206;16.402;2023-04-19T12:32:03;99682.75;;;11.47;92.20
13869;BME280;7004;48.206;16.402;2023-04-19T12:34:30;99674.38;;;11.41;95.53
13869;BME280;7004;48.206;16.402;2023-04-19T12:36:56;99674.56;;;11.25;94.24
13869;BME280;7004;48.206;16.402;2023-04-19T12:39:22;99682.63;;;11.49;92.36
13869;BME280;7004;48.206;16.402;2023-04-19T12:41:49;99680.22;;;11.84;90.26
13869;BME280;7004;48.206;16.402;2023-04-19T12:44:15;99676.72;;;11.45;91.64
13869;BME280;7004;48.206;16.402;2023-04-19T12:46:41;99678.09;;;11.51;87.53
13869;BME280;7004;48.206;16.402;2023-04-19T12:49:07;99672.78;;;11.51;89.38
13869;BME280;7004;48.206;16.402;2023-04-19T12:51:33;99676.81;;;11.56;87.48
13869;BME280;7004;48.206;16.402;2023-04-19T12:54:00;99675.97;;;11.56;84.93
13869;BME280;7004;48.206;16.402;2023-04-19T12:56:27;99675.16;;;11.68;86.08
13869;BME280;7004;48.206;16.402;2023-04-19T12:58:53;99670.59;;;12.09;88.59
13869;BME280;7004;48.206;16.402;2023-04-19T13:01:19;99672.28;;;11.84;83.21
13869;BME280;7004;48.206;16.402;2023-04-19T13:03:45;99663.53;;;11.96;86.47
13869;BME280;7004;48.206;16.402;2023-04-19T13:06:11;99673.44;;;12.06;84.16